Time;durP1;ratioP1;P1;durP2;ratioP2;P2;SDS_P1;SDS_P2;PMS_P1;PMS_P2;Temp;Humidity;BMP_temperature;BMP_pressure;BME280_temperature;BME280_humidity;BME280_pressure;Samples;Min_cycle;Max_cycle;Signal;HPM_P1;HPM_P2
2021/07/03 00:01:19;;;;;;;34.22;21.75;;;;;;;;;;5009176;28;20311;-68
2021/07/03 00:03:44;;;;;;;34.10;22.92;;;;;;;;;;5021502;28;20277;-70
2021/07/03 00:06:09;;;;;;;34.67;22.33;;;;;;;;;;5014002;28;20210;-69
2021/07/03 00:08:35;;;;;;;32.88;21.48;;;;;;;;;;5006114;28;20309;-69
2021/07/03 00:11:03;;;;;;;36.08;22.05;;;;;;;;;;5005957;28;20179;-69
2021/07/03 00:13:29;;;;;;;31.48;21.55;;;;;;;;;;5020528;28;20678;-69
2021/07/03 00:15:55;;;;;;;34.47;21.98;;;;;;;;;;4994586;28;20201;-69
2021/07/03 00:18:20;;;;;;;32.95;21.40;;;;;;;;;;5023397;28;20182;-69
2021/07/03 00:20:46;;;;;;;30.27;21.13;;;;;;;;;;5013572;28;20183;-69
2021/07/03 00:23:12;;;;;;;31.85;21.55;;;;;;;;;;5015837;28;20301;-68
2021/07/03 00:25:38;;;;;;;32.10;21.42;;;;;;;;;;5010293;28;20182;-68
2021/07/03 00:28:04;;;;;;;30.65;22.05;;;;;;;;;;5020296;28;20221;-69
2021/07/03 00:30:30;;;;;;;34.55;23.38;;;;;;;;;;5020628;28;20218;-68
2021/07/03 00:32:55;;;;;;;33.55;22.98;;;;;;;;;;5009605;28;20220;-68
2021/07/03 00:35:21;;;;;;;35.50;23.13;;;;;;;;;;5021025;28;20197;-70
2021/07/03 00:37:46;;;;;;;34.70;22.23;;;;;;;;;;5012109;28;20186;-69
2021/07/03 00:40:13;;;;;;;33.72;22.88;;;;;;;;;;5023724;28;20186;-69
2021/07/03 00:42:38;;;;;;;31.38;21.52;;;;;;;;;;5014384;28;20289;-68
2021/07/03 00:45:05;;;;;;;35.28;22.50;;;;;;;;;;5023467;28;20265;-69
2021/07/03 00:47:31;;;;;;;31.52;22.23;;;;;;;;;;5015113;28;20233;-69
2021/07/03 00:49:56;;;;;;;34.53;22.55;;;;;;;;;;5026993;28;20185;-68
2021/07/03 00:52:22;;;;;;;34.33;21.60;;;;;;;;;;5014128;28;20186;-68
2021/07/03 00:54:48;;;;;;;31.98;20.40;;;;;;;;;;5009281;28;20762;-69
2021/07/03 00:57:14;;;;;;;31.88;22.42;;;;;;;;;;5018795;28;20190;-69
2021/07/03 00:59:43;;;;;;;30.48;21.42;;;;;;;;;;5019957;28;20633;-69
2021/07/03 01:02:10;;;;;;;32.20;21.80;;;;;;;;;;5018480;28;20195;-69
2021/07/03 01:04:36;;;;;;;30.10;20.83;;;;;;;;;;5017592;28;20580;-69
2021/07/03 01:07:04;;;;;;;29.70;20.83;;;;;;;;;;5022519;28;20205;-69
2021/07/03 01:09:29;;;;;;;29.10;19.63;;;;;;;;;;5016339;28;20208;-68
2021/07/03 01:11:54;;;;;;;30.25;20.10;;;;;;;;;;5023884;28;20384;-68
2021/07/03 01:14:20;;;;;;;31.40;21.30;;;;;;;;;;5018696;28;20203;-68
2021/07/03 01:16:47;;;;;;;31.20;21.52;;;;;;;;;;5022567;28;20243;-69
2021/07/03 01:19:13;;;;;;;31.20;21.60;;;;;;;;;;5014626;28;20205;-69
2021/07/03 01:21:39;;;;;;;30.58;21.80;;;;;;;;;;5024820;28;20190;-68
2021/07/03 01:24:04;;;;;;;30.95;20.35;;;;;;;;;;5015945;28;20190;-68
2021/07/03 01:26:41;;;;;;;31.90;20.52;;;;;;;;;;5025978;28;20186;-68
2021/07/03 01:29:06;;;;;;;29.90;20.40;;;;;;;;;;5016946;28;20178;-69
2021/07/03 01:31:32;;;;;;;32.90;22.70;;;;;;;;;;5019861;28;20201;-68
2021/07/03 01:33:57;;;;;;;35.95;24.20;;;;;;;;;;5004760;28;20681;-68
2021/07/03 01:36:22;;;;;;;33.65;22.83;;;;;;;;;;5014444;28;20281;-68
2021/07/03 01:38:48;;;;;;;36.85;24.20;;;;;;;;;;5026252;28;20578;-68
2021/07/03 01:41:13;;;;;;;36.75;23.63;;;;;;;;;;5012186;28;20538;-68
2021/07/03 01:43:38;;;;;;;35.63;22.38;;;;;;;;;;5028006;28;20645;-68
2021/07/03 01:46:04;;;;;;;31.83;21.40;;;;;;;;;;5013802;28;20634;-68
2021/07/03 01:48:31;;;;;;;33.13;22.13;;;;;;;;;;5016918;28;20233;-68
2021/07/03 01:50:57;;;;;;;37.83;24.05;;;;;;;;;;5011433;28;20271;-68
2021/07/03 01:53:24;;;;;;;30.02;21.98;;;;;;;;;;5012999;28;20606;-68
2021/07/03 01:55:51;;;;;;;32.10;21.90;;;;;;;;;;5012544;28;20194;-69
2021/07/03 01:58:18;;;;;;;29.98;20.40;;;;;;;;;;5013642;28;20270;-69
2021/07/03 02:00:44;;;;;;;32.47;21.58;;;;;;;;;;5008797;28;20206;-69
2021/07/03 02:03:10;;;;;;;30.63;22.05;;;;;;;;;;5013644;28;20195;-68
2021/07/03 02:05:35;;;;;;;29.50;21.60;;;;;;;;;;5021426;28;20193;-69
2021/07/03 02:08:00;;;;;;;32.70;23.75;;;;;;;;;;5012271;28;20260;-68
2021/07/03 02:10:26;;;;;;;30.02;22.83;;;;;;;;;;5018845;28;20337;-68
2021/07/03 02:12:51;;;;;;;32.80;22.75;;;;;;;;;;5006079;28;20194;-68
2021/07/03 02:15:17;;;;;;;38.60;25.75;;;;;;;;;;5022294;28;20250;-68
2021/07/03 02:17:42;;;;;;;42.20;27.73;;;;;;;;;;5017885;28;20315;-68
2021/07/03 02:20:08;;;;;;;47.20;25.70;;;;;;;;;;5021829;28;20590;-68
2021/07/03 02:22:33;;;;;;;51.20;26.00;;;;;;;;;;5010681;28;20239;-68
2021/07/03 02:24:59;;;;;;;48.45;25.50;;;;;;;;;;5023174;28;20182;-68
2021/07/03 02:27:24;;;;;;;69.20;27.92;;;;;;;;;;5015755;28;20217;-68
2021/07/03 02:29:50;;;;;;;126.53;28.75;;;;;;;;;;5023432;28;20182;-68
2021/07/03 02:32:15;;;;;;;62.95;30.60;;;;;;;;;;5011149;28;20273;-68
2021/07/03 02:34:40;;;;;;;50.80;29.73;;;;;;;;;;5024895;28;20537;-68
2021/07/03 02:37:06;;;;;;;49.28;29.42;;;;;;;;;;5026485;28;20192;-69
2021/07/03 02:39:31;;;;;;;43.40;29.75;;;;;;;;;;5014925;28;20652;-68
2021/07/03 02:41:56;;;;;;;45.53;28.30;;;;;;;;;;5021795;28;20175;-68
2021/07/03 02:44:22;;;;;;;42.50;26.60;;;;;;;;;;5015545;28;20222;-68
2021/07/03 02:46:47;;;;;;;67.13;27.92;;;;;;;;;;5037820;28;20596;-68
2021/07/03 02:49:12;;;;;;;64.05;29.10;;;;;;;;;;5032787;28;20304;-68
2021/07/03 02:51:38;;;;;;;73.95;30.05;;;;;;;;;;5044173;28;20189;-69
2021/07/03 02:54:03;;;;;;;102.53;31.83;;;;;;;;;;5034180;28;20722;-69
2021/07/03 02:56:28;;;;;;;110.05;31.08;;;;;;;;;;5045624;28;20205;-69
2021/07/03 02:58:54;;;;;;;78.05;28.08;;;;;;;;;;5033589;28;20243;-69
2021/07/03 03:01:19;;;;;;;113.82;31.42;;;;;;;;;;5038229;28;20304;-69
2021/07/03 03:03:44;;;;;;;130.40;30.58;;;;;;;;;;5034678;28;20194;-69
2021/07/03 03:06:13;;;;;;;220.00;33.90;;;;;;;;;;5043150;28;20239;-68
2021/07/03 03:08:39;;;;;;;179.95;31.75;;;;;;;;;;5040954;28;20295;-68
2021/07/03 03:11:04;;;;;;;68.40;26.52;;;;;;;;;;5035231;28;20284;-68
2021/07/03 03:13:29;;;;;;;102.30;26.55;;;;;;;;;;5043509;28;20185;-70
2021/07/03 03:15:55;;;;;;;58.67;23.58;;;;;;;;;;5036169;28;20189;-68
2021/07/03 03:18:20;;;;;;;44.10;23.02;;;;;;;;;;5043316;28;20877;-68
2021/07/03 03:20:45;;;;;;;38.00;22.50;;;;;;;;;;5037443;28;20270;-68
2021/07/03 03:23:11;;;;;;;30.35;21.08;;;;;;;;;;5038977;28;20196;-68
2021/07/03 03:25:37;;;;;;;52.92;22.98;;;;;;;;;;5033858;28;20185;-68
2021/07/03 03:28:02;;;;;;;29.45;20.92;;;;;;;;;;5040476;28;20220;-69
2021/07/03 03:30:28;;;;;;;34.65;22.50;;;;;;;;;;5036809;28;21508;-68
2021/07/03 03:32:53;;;;;;;60.17;23.38;;;;;;;;;;5037936;28;20190;-68
2021/07/03 03:35:19;;;;;;;54.33;23.98;;;;;;;;;;5036438;28;20225;-68
2021/07/03 03:37:44;;;;;;;66.90;23.92;;;;;;;;;;5033739;28;20678;-68
2021/07/03 03:40:10;;;;;;;61.17;25.05;;;;;;;;;;5046530;28;20276;-68
2021/07/03 03:42:35;;;;;;;83.18;25.88;;;;;;;;;;5031191;28;20189;-69
2021/07/03 03:45:03;;;;;;;61.20;22.92;;;;;;;;;;5043756;28;20535;-69
2021/07/03 03:47:28;;;;;;;70.53;22.45;;;;;;;;;;5017366;28;20706;-69
2021/07/03 03:49:54;;;;;;;120.22;25.10;;;;;;;;;;5019134;28;20255;-69
2021/07/03 03:52:19;;;;;;;83.35;22.80;;;;;;;;;;5013373;28;20189;-68
2021/07/03 03:54:44;;;;;;;74.07;23.08;;;;;;;;;;5018991;28;20673;-68
2021/07/03 03:57:22;;;;;;;69.90;20.73;;;;;;;;;;5012206;28;20189;-68
2021/07/03 03:59:49;;;;;;;56.70;20.65;;;;;;;;;;5023570;28;20253;-68
2021/07/03 04:02:15;;;;;;;45.92;21.33;;;;;;;;;;5013030;28;20328;-69
2021/07/03 04:04:40;;;;;;;41.95;19.52;;;;;;;;;;5022849;28;20656;-69
2021/07/03 04:07:05;;;;;;;52.50;21.77;;;;;;;;;;5010959;28;20267;-69
2021/07/03 04:09:31;;;;;;;27.60;19.92;;;;;;;;;;5016139;28;20728;-68
2021/07/03 04:11:56;;;;;;;24.48;20.00;;;;;;;;;;5023148;28;20174;-69
2021/07/03 04:14:22;;;;;;;23.08;20.58;;;;;;;;;;5013828;28;20277;-69
2021/07/03 04:16:47;;;;;;;44.72;21.25;;;;;;;;;;5021234;28;20189;-68
2021/07/03 04:19:13;;;;;;;40.92;21.90;;;;;;;;;;5009433;28;20186;-69
2021/07/03 04:21:38;;;;;;;68.55;21.58;;;;;;;;;;5023777;28;20214;-69
2021/07/03 04:24:04;;;;;;;37.55;20.95;;;;;;;;;;5011371;28;20193;-68
2021/07/03 04:26:29;;;;;;;42.30;20.48;;;;;;;;;;5020244;28;20492;-68
2021/07/03 04:28:55;;;;;;;24.33;19.15;;;;;;;;;;5014254;28;20620;-69
2021/07/03 04:31:20;;;;;;;28.10;20.35;;;;;;;;;;5023133;28;20369;-69
2021/07/03 04:33:45;;;;;;;27.65;21.58;;;;;;;;;;5014028;28;20270;-69
2021/07/03 04:36:11;;;;;;;32.00;20.67;;;;;;;;;;5021632;28;20593;-69
2021/07/03 04:38:36;;;;;;;30.10;22.52;;;;;;;;;;5011608;28;20202;-69
2021/07/03 04:41:01;;;;;;;30.55;22.52;;;;;;;;;;5018669;28;20651;-69
2021/07/03 04:43:27;;;;;;;27.10;22.58;;;;;;;;;;5022616;28;21260;-69
2021/07/03 04:45:52;;;;;;;30.67;23.35;;;;;;;;;;5011613;28;20226;-69
2021/07/03 04:48:17;;;;;;;28.38;21.48;;;;;;;;;;5025856;28;20326;-69
2021/07/03 04:50:43;;;;;;;25.92;21.27;;;;;;;;;;5012170;28;20333;-69
2021/07/03 04:53:08;;;;;;;27.98;21.58;;;;;;;;;;5022081;28;20182;-69
2021/07/03 04:55:34;;;;;;;25.65;20.52;;;;;;;;;;5015271;28;20336;-69
2021/07/03 04:57:59;;;;;;;24.70;20.15;;;;;;;;;;5021330;28;20287;-69
2021/07/03 05:00:24;;;;;;;25.10;19.67;;;;;;;;;;5008358;28;20206;-69
2021/07/03 05:02:50;;;;;;;25.15;20.10;;;;;;;;;;5015827;28;20409;-69
2021/07/03 05:05:15;;;;;;;28.40;19.92;;;;;;;;;;5010596;28;20271;-69
2021/07/03 05:07:42;;;;;;;23.20;18.75;;;;;;;;;;5016643;28;20292;-69
2021/07/03 05:10:08;;;;;;;28.15;21.23;;;;;;;;;;5008252;28;20229;-69
2021/07/03 05:12:34;;;;;;;28.67;21.80;;;;;;;;;;5015250;28;20200;-68
2021/07/03 05:14:59;;;;;;;32.28;24.23;;;;;;;;;;5018305;28;20190;-68
2021/07/03 05:17:25;;;;;;;35.35;24.52;;;;;;;;;;5008845;28;20317;-68
2021/07/03 05:19:51;;;;;;;38.42;26.30;;;;;;;;;;5021331;28;20201;-68
2021/07/03 05:22:16;;;;;;;37.38;26.45;;;;;;;;;;5015069;28;20316;-68
2021/07/03 05:24:41;;;;;;;42.58;28.83;;;;;;;;;;5021123;28;20177;-69
2021/07/03 05:27:07;;;;;;;43.17;28.65;;;;;;;;;;5007956;28;20241;-68
2021/07/03 05:29:33;;;;;;;39.97;29.33;;;;;;;;;;5020741;28;20217;-68
2021/07/03 05:31:58;;;;;;;45.63;29.98;;;;;;;;;;5015101;28;20192;-68
2021/07/03 05:34:23;;;;;;;39.40;28.05;;;;;;;;;;5017792;28;20269;-68
2021/07/03 05:36:49;;;;;;;43.17;29.98;;;;;;;;;;5007069;28;20518;-69
2021/07/03 05:39:15;;;;;;;45.20;30.75;;;;;;;;;;5022386;28;20182;-69
2021/07/03 05:41:40;;;;;;;43.80;31.55;;;;;;;;;;5014012;28;20193;-69
2021/07/03 05:44:06;;;;;;;42.92;31.10;;;;;;;;;;5011878;28;20641;-69
2021/07/03 05:46:32;;;;;;;43.67;31.08;;;;;;;;;;5023172;28;20321;-69
2021/07/03 05:48:58;;;;;;;45.72;30.95;;;;;;;;;;5017534;28;20233;-69
2021/07/03 05:51:27;;;;;;;47.05;32.50;;;;;;;;;;5026068;28;20185;-69
2021/07/03 05:53:54;;;;;;;47.95;32.53;;;;;;;;;;5015935;28;20186;-69
2021/07/03 05:56:19;;;;;;;53.70;34.58;;;;;;;;;;5023661;28;20202;-69
2021/07/03 05:58:45;;;;;;;53.00;34.72;;;;;;;;;;4999131;28;20233;-69
2021/07/03 06:01:10;;;;;;;57.90;34.88;;;;;;;;;;5024482;28;20685;-69
2021/07/03 06:03:36;;;;;;;58.70;37.58;;;;;;;;;;5016601;28;20547;-69
2021/07/03 06:06:01;;;;;;;54.55;34.92;;;;;;;;;;5023806;28;20186;-69
2021/07/03 06:08:26;;;;;;;54.55;35.90;;;;;;;;;;5001006;28;20233;-69
2021/07/03 06:10:52;;;;;;;54.67;36.13;;;;;;;;;;5023495;28;20222;-69
2021/07/03 06:13:17;;;;;;;58.15;35.53;;;;;;;;;;5024426;28;20200;-69
2021/07/03 06:15:42;;;;;;;54.50;37.22;;;;;;;;;;5014167;28;20194;-69
2021/07/03 06:18:08;;;;;;;54.47;33.97;;;;;;;;;;5023902;28;20186;-69
2021/07/03 06:20:33;;;;;;;54.55;34.97;;;;;;;;;;5012209;28;20244;-70
2021/07/03 06:22:59;;;;;;;52.67;35.25;;;;;;;;;;5025497;28;20649;-70
2021/07/03 06:25:24;;;;;;;52.83;32.75;;;;;;;;;;4997871;28;20205;-69
2021/07/03 06:27:49;;;;;;;55.88;35.97;;;;;;;;;;5025687;28;20220;-69
2021/07/03 06:30:16;;;;;;;53.05;34.50;;;;;;;;;;5014758;28;20713;-69
2021/07/03 06:32:41;;;;;;;50.35;34.20;;;;;;;;;;5022571;28;20185;-69
2021/07/03 06:35:07;;;;;;;49.75;33.95;;;;;;;;;;5014490;28;20245;-69
2021/07/03 06:37:33;;;;;;;50.85;34.25;;;;;;;;;;5010424;28;20182;-69
2021/07/03 06:39:58;;;;;;;49.45;34.05;;;;;;;;;;5014263;28;20190;-69
2021/07/03 06:42:24;;;;;;;54.42;34.75;;;;;;;;;;5023734;28;20545;-69
2021/07/03 06:44:50;;;;;;;53.50;35.05;;;;;;;;;;5023743;28;20194;-69
2021/07/03 06:47:15;;;;;;;52.50;34.13;;;;;;;;;;5014658;28;20267;-69
2021/07/03 06:49:41;;;;;;;50.55;33.13;;;;;;;;;;5022260;28;20181;-69
2021/07/03 06:52:09;;;;;;;54.33;36.03;;;;;;;;;;5012387;28;20193;-69
2021/07/03 06:54:38;;;;;;;53.00;35.17;;;;;;;;;;5019519;28;20268;-69
2021/07/03 06:57:03;;;;;;;52.50;33.72;;;;;;;;;;5011518;28;20186;-69
2021/07/03 06:59:30;;;;;;;49.42;32.47;;;;;;;;;;5021715;28;20598;-69
2021/07/03 07:01:56;;;;;;;48.08;30.92;;;;;;;;;;4999925;28;20655;-69
2021/07/03 07:04:22;;;;;;;46.40;29.58;;;;;;;;;;5021917;28;20260;-69
2021/07/03 07:06:48;;;;;;;48.65;32.42;;;;;;;;;;5012544;28;20189;-69
2021/07/03 07:09:14;;;;;;;47.67;31.63;;;;;;;;;;5021267;28;20193;-69
2021/07/03 07:11:39;;;;;;;41.55;27.95;;;;;;;;;;5014487;28;20174;-69
2021/07/03 07:14:05;;;;;;;46.78;29.77;;;;;;;;;;5022677;28;20549;-69
2021/07/03 07:16:30;;;;;;;43.78;29.15;;;;;;;;;;5021570;28;20272;-69
2021/07/03 07:18:55;;;;;;;43.90;28.08;;;;;;;;;;5011463;28;20715;-69
2021/07/03 07:21:21;;;;;;;41.88;27.88;;;;;;;;;;5026832;28;20553;-69
2021/07/03 07:23:46;;;;;;;47.22;28.92;;;;;;;;;;5011576;28;20195;-71
2021/07/03 07:26:11;;;;;;;49.30;29.27;;;;;;;;;;5021892;28;20252;-70
2021/07/03 07:28:37;;;;;;;37.67;26.52;;;;;;;;;;5011471;28;20210;-69
2021/07/03 07:31:02;;;;;;;37.40;25.08;;;;;;;;;;5021148;28;20201;-70
2021/07/03 07:33:27;;;;;;;39.85;25.65;;;;;;;;;;5012300;28;20279;-69
2021/07/03 07:35:53;;;;;;;41.20;25.17;;;;;;;;;;5019158;28;20213;-69
2021/07/03 07:38:18;;;;;;;41.80;26.45;;;;;;;;;;5010802;28;20735;-70
2021/07/03 07:40:44;;;;;;;42.60;27.13;;;;;;;;;;5018665;28;21570;-70
2021/07/03 07:43:09;;;;;;;41.95;28.85;;;;;;;;;;5013284;28;20186;-70
2021/07/03 07:45:35;;;;;;;39.33;27.70;;;;;;;;;;4994865;28;20194;-70
2021/07/03 07:48:00;;;;;;;42.13;27.52;;;;;;;;;;5016470;28;20217;-69
2021/07/03 07:50:25;;;;;;;40.78;27.25;;;;;;;;;;5011419;28;20205;-69
2021/07/03 07:52:51;;;;;;;42.03;26.13;;;;;;;;;;5019469;28;20183;-70
2021/07/03 07:55:16;;;;;;;39.60;26.02;;;;;;;;;;5012669;28;20243;-69
2021/07/03 07:57:42;;;;;;;42.55;25.63;;;;;;;;;;5022249;28;20550;-70
2021/07/03 08:00:08;;;;;;;42.92;25.45;;;;;;;;;;5013930;28;20301;-69
2021/07/03 08:02:33;;;;;;;34.90;24.65;;;;;;;;;;5022671;28;20302;-70
2021/07/03 08:04:59;;;;;;;40.00;26.40;;;;;;;;;;5009213;28;20209;-69
2021/07/03 08:07:24;;;;;;;40.25;25.77;;;;;;;;;;5019805;28;20221;-69
2021/07/03 08:09:49;;;;;;;32.78;24.90;;;;;;;;;;5011053;28;20598;-68
2021/07/03 08:12:14;;;;;;;34.33;24.00;;;;;;;;;;5021559;28;20286;-68
2021/07/03 08:14:40;;;;;;;36.65;26.17;;;;;;;;;;5018987;28;20213;-67
2021/07/03 08:17:06;;;;;;;38.28;25.88;;;;;;;;;;5010869;28;20182;-68
2021/07/03 08:19:31;;;;;;;38.17;26.35;;;;;;;;;;5023314;28;20197;-68
2021/07/03 08:22:00;;;;;;;36.25;24.23;;;;;;;;;;5012904;28;20198;-69
2021/07/03 08:24:26;;;;;;;31.10;22.63;;;;;;;;;;5007015;28;20196;-68
2021/07/03 08:26:51;;;;;;;33.47;23.50;;;;;;;;;;5014449;28;20186;-68
2021/07/03 08:29:17;;;;;;;32.08;23.52;;;;;;;;;;5020752;28;20186;-69
2021/07/03 08:31:42;;;;;;;35.60;24.05;;;;;;;;;;5013554;28;20192;-69
2021/07/03 08:34:07;;;;;;;34.55;23.13;;;;;;;;;;5020517;28;20186;-70
2021/07/03 08:36:33;;;;;;;33.22;21.98;;;;;;;;;;5015381;28;20236;-69
2021/07/03 08:38:58;;;;;;;29.77;19.73;;;;;;;;;;5023235;28;20174;-70
2021/07/03 08:41:25;;;;;;;30.15;21.05;;;;;;;;;;5011308;28;20349;-69
2021/07/03 08:43:50;;;;;;;31.13;20.60;;;;;;;;;;5021124;28;20189;-69
2021/07/03 08:46:19;;;;;;;27.73;19.40;;;;;;;;;;5017394;28;20328;-68
2021/07/03 08:49:02;;;;;;;28.10;19.33;;;;;;;;;;5018508;28;20226;-68
2021/07/03 08:51:28;;;;;;;28.83;19.85;;;;;;;;;;5019159;28;20190;-68
2021/07/03 08:53:53;;;;;;;27.00;19.00;;;;;;;;;;5009694;28;20232;-69
2021/07/03 08:56:19;;;;;;;28.67;19.40;;;;;;;;;;5019591;28;20661;-69
2021/07/03 08:58:45;;;;;;;24.27;16.92;;;;;;;;;;5013359;28;20221;-70
2021/07/03 09:01:10;;;;;;;24.17;17.52;;;;;;;;;;5018619;28;20598;-69
2021/07/03 09:03:36;;;;;;;29.13;18.73;;;;;;;;;;5010611;28;20395;-70
2021/07/03 09:06:05;;;;;;;29.65;19.95;;;;;;;;;;5018590;28;20186;-69
2021/07/03 09:08:31;;;;;;;28.67;20.40;;;;;;;;;;5013966;28;20900;-69
2021/07/03 09:11:08;;;;;;;27.08;20.00;;;;;;;;;;5016196;28;20543;-69
2021/07/03 09:13:36;;;;;;;28.83;19.50;;;;;;;;;;5013249;28;20201;-69
2021/07/03 09:16:01;;;;;;;28.55;19.38;;;;;;;;;;5016047;28;20694;-68
2021/07/03 09:18:28;;;;;;;25.30;17.88;;;;;;;;;;5008410;28;20676;-70
2021/07/03 09:20:56;;;;;;;25.40;18.90;;;;;;;;;;5019983;28;20190;-69
2021/07/03 09:23:29;;;;;;;29.52;18.73;;;;;;;;;;5012528;28;20766;-69
2021/07/03 09:25:57;;;;;;;28.85;18.17;;;;;;;;;;5021117;28;20189;-68
2021/07/03 09:28:26;;;;;;;27.83;17.70;;;;;;;;;;5022808;28;20206;-70
2021/07/03 09:30:54;;;;;;;24.75;18.10;;;;;;;;;;5008785;28;20193;-68
2021/07/03 09:33:25;;;;;;;26.70;18.10;;;;;;;;;;5021927;28;20649;-70
2021/07/03 09:36:02;;;;;;;25.13;16.60;;;;;;;;;;5013155;28;20196;-70
2021/07/03 09:38:35;;;;;;;26.85;17.05;;;;;;;;;;5021200;28;20241;-69
2021/07/03 09:41:16;;;;;;;23.40;15.65;;;;;;;;;;5014182;28;20197;-70
2021/07/03 09:44:03;;;;;;;25.58;17.42;;;;;;;;;;5016576;28;20252;-70
2021/07/03 09:46:34;;;;;;;28.27;19.77;;;;;;;;;;5007315;28;20225;-67
2021/07/03 09:49:08;;;;;;;25.95;18.10;;;;;;;;;;5017111;28;20221;-69
2021/07/03 09:51:47;;;;;;;28.27;18.17;;;;;;;;;;5006833;28;20581;-71
2021/07/03 09:54:15;;;;;;;24.23;18.55;;;;;;;;;;5016842;28;20650;-72
2021/07/03 09:56:41;;;;;;;22.77;15.93;;;;;;;;;;5007499;28;20623;-69
2021/07/03 09:59:08;;;;;;;28.33;18.38;;;;;;;;;;5014049;28;20190;-69
2021/07/03 10:01:34;;;;;;;26.25;16.13;;;;;;;;;;5008736;28;20724;-72
2021/07/03 10:04:02;;;;;;;24.98;16.55;;;;;;;;;;5017446;28;20684;-72
2021/07/03 10:06:32;;;;;;;26.52;16.42;;;;;;;;;;5011555;28;20189;-71
2021/07/03 10:09:06;;;;;;;21.90;16.73;;;;;;;;;;5018334;28;20761;-70
2021/07/03 10:11:47;;;;;;;19.45;15.05;;;;;;;;;;5011059;28;20195;-70
2021/07/03 10:14:13;;;;;;;37.95;16.60;;;;;;;;;;5018274;28;20756;-70
2021/07/03 10:16:39;;;;;;;31.60;16.70;;;;;;;;;;5009541;28;20186;-70
2021/07/03 10:19:15;;;;;;;21.80;14.68;;;;;;;;;;5016874;28;20597;-69
2021/07/03 10:21:43;;;;;;;22.55;15.38;;;;;;;;;;5009064;28;20190;-70
2021/07/03 10:24:40;;;;;;;21.08;15.25;;;;;;;;;;5017767;28;20284;-70
2021/07/03 10:27:34;;;;;;;21.67;15.07;;;;;;;;;;5009607;28;20231;-70
2021/07/03 10:30:03;;;;;;;25.40;16.40;;;;;;;;;;5017260;28;20202;-70
2021/07/03 10:32:30;;;;;;;22.67;16.35;;;;;;;;;;4993288;28;20202;-70
2021/07/03 10:35:13;;;;;;;36.80;16.50;;;;;;;;;;5001831;28;20649;-67
2021/07/03 10:37:39;;;;;;;26.83;17.13;;;;;;;;;;5016918;28;20220;-69
2021/07/03 10:40:18;;;;;;;45.45;21.20;;;;;;;;;;5023779;28;20225;-70
2021/07/03 10:42:43;;;;;;;27.80;14.18;;;;;;;;;;5012895;28;20841;-73
2021/07/03 10:45:18;;;;;;;21.33;14.25;;;;;;;;;;5025133;28;20269;-70
2021/07/03 10:47:44;;;;;;;21.33;15.50;;;;;;;;;;5019585;28;20233;-72
2021/07/03 10:50:29;;;;;;;18.98;12.95;;;;;;;;;;5013251;28;21046;-71
2021/07/03 10:52:56;;;;;;;17.95;14.38;;;;;;;;;;5021559;28;20221;-68
2021/07/03 10:55:27;;;;;;;24.20;15.63;;;;;;;;;;5017286;28;20181;-67
2021/07/03 10:57:53;;;;;;;23.02;16.08;;;;;;;;;;5024586;28;20237;-70
2021/07/03 11:00:22;;;;;;;19.73;14.82;;;;;;;;;;5012125;28;20210;-70
2021/07/03 11:02:48;;;;;;;19.48;14.55;;;;;;;;;;5024591;28;20538;-70
2021/07/03 11:05:14;;;;;;;19.45;14.73;;;;;;;;;;5013066;28;20193;-71
2021/07/03 11:07:41;;;;;;;19.05;14.40;;;;;;;;;;5022135;28;20213;-71
2021/07/03 11:10:15;;;;;;;20.02;15.07;;;;;;;;;;5010990;28;20233;-73
2021/07/03 11:12:49;;;;;;;20.08;14.30;;;;;;;;;;5022425;28;20206;-70
2021/07/03 11:15:24;;;;;;;21.17;15.18;;;;;;;;;;5012490;28;20575;-71
2021/07/03 11:17:50;;;;;;;19.33;14.40;;;;;;;;;;5020735;28;20193;-69
2021/07/03 11:20:25;;;;;;;20.63;15.18;;;;;;;;;;5012707;28;20293;-68
2021/07/03 11:22:52;;;;;;;22.73;15.88;;;;;;;;;;5022034;28;20182;-70
2021/07/03 11:25:30;;;;;;;21.23;14.80;;;;;;;;;;5011339;28;20190;-69
2021/07/03 11:28:18;;;;;;;21.55;15.85;;;;;;;;;;5021452;28;20218;-70
2021/07/03 11:30:46;;;;;;;20.83;14.45;;;;;;;;;;4994334;28;20285;-70
2021/07/03 11:33:13;;;;;;;21.02;15.27;;;;;;;;;;5024449;28;20628;-70
2021/07/03 11:35:43;;;;;;;20.77;15.00;;;;;;;;;;5012091;28;20649;-70
2021/07/03 11:38:09;;;;;;;21.02;14.43;;;;;;;;;;5018229;28;20182;-72
2021/07/03 11:40:34;;;;;;;17.38;12.70;;;;;;;;;;5015162;28;20642;-71
2021/07/03 11:43:02;;;;;;;15.80;12.57;;;;;;;;;;5018812;28;20200;-70
2021/07/03 11:45:30;;;;;;;19.85;14.00;;;;;;;;;;5022489;28;20178;-70
2021/07/03 11:48:03;;;;;;;16.25;12.80;;;;;;;;;;5013504;28;20210;-71
2021/07/03 11:50:32;;;;;;;16.33;12.80;;;;;;;;;;5024197;28;20217;-70
2021/07/03 11:52:59;;;;;;;19.05;13.95;;;;;;;;;;5008408;28;20554;-70
2021/07/03 11:55:37;;;;;;;15.43;12.23;;;;;;;;;;5020076;28;20182;-70
2021/07/03 11:58:03;;;;;;;13.90;11.55;;;;;;;;;;5014041;28;20178;-71
2021/07/03 12:00:34;;;;;;;15.30;12.48;;;;;;;;;;5017687;28;20701;-70
2021/07/03 12:03:00;;;;;;;16.25;12.57;;;;;;;;;;5010526;28;20190;-72
2021/07/03 12:05:37;;;;;;;16.23;12.68;;;;;;;;;;5026450;28;20185;-71
2021/07/03 12:08:08;;;;;;;15.18;11.68;;;;;;;;;;5011152;28;20204;-70
2021/07/03 12:10:38;;;;;;;15.80;11.88;;;;;;;;;;5023451;28;20209;-71
2021/07/03 12:13:06;;;;;;;15.27;11.70;;;;;;;;;;5012704;28;20257;-69
2021/07/03 12:15:32;;;;;;;16.67;11.45;;;;;;;;;;5018446;28;20241;-71
2021/07/03 12:17:58;;;;;;;12.52;11.18;;;;;;;;;;5010368;28;20186;-71
2021/07/03 12:20:24;;;;;;;11.35;9.38;;;;;;;;;;5021736;28;20388;-71
2021/07/03 12:22:55;;;;;;;11.57;10.35;;;;;;;;;;5011672;28;20194;-73
2021/07/03 12:25:23;;;;;;;10.98;8.65;;;;;;;;;;5024009;28;20217;-72
2021/07/03 12:28:05;;;;;;;9.82;8.52;;;;;;;;;;5012106;28;20198;-71
2021/07/03 12:30:32;;;;;;;9.20;8.20;;;;;;;;;;5005455;28;20178;-72
2021/07/03 12:33:09;;;;;;;11.32;9.57;;;;;;;;;;5016560;28;20194;-72
2021/07/03 12:35:37;;;;;;;13.32;9.60;;;;;;;;;;5022627;28;20183;-72
2021/07/03 12:38:03;;;;;;;12.18;9.73;;;;;;;;;;5020479;28;20179;-73
2021/07/03 12:40:35;;;;;;;12.13;9.93;;;;;;;;;;4997118;28;20190;-74
2021/07/03 12:43:01;;;;;;;11.98;9.73;;;;;;;;;;5019948;28;20183;-73
2021/07/03 12:45:27;;;;;;;10.25;8.75;;;;;;;;;;5014726;28;20197;-75
2021/07/03 12:48:10;;;;;;;14.45;11.15;;;;;;;;;;5023085;28;20225;-73
2021/07/03 12:50:36;;;;;;;13.75;10.57;;;;;;;;;;5011859;28;20661;-72
2021/07/03 12:53:22;;;;;;;13.15;9.95;;;;;;;;;;5020292;28;20232;-74
2021/07/03 12:55:48;;;;;;;11.68;9.20;;;;;;;;;;5013877;28;22653;-73
2021/07/03 12:58:22;;;;;;;11.82;9.35;;;;;;;;;;5020678;28;20174;-73
2021/07/03 13:00:48;;;;;;;10.07;8.00;;;;;;;;;;5010790;28;20210;-73
2021/07/03 13:03:15;;;;;;;9.32;7.07;;;;;;;;;;5018369;28;20189;-74
2021/07/03 13:05:40;;;;;;;10.63;7.93;;;;;;;;;;5013664;28;20702;-73
2021/07/03 13:08:06;;;;;;;11.05;8.75;;;;;;;;;;5019318;28;20334;-74
2021/07/03 13:10:33;;;;;;;8.93;7.75;;;;;;;;;;4995968;28;20185;-74
2021/07/03 13:12:59;;;;;;;8.30;6.68;;;;;;;;;;5021070;28;20193;-71
2021/07/03 13:15:25;;;;;;;11.32;7.63;;;;;;;;;;5009077;28;20703;-74
2021/07/03 13:17:50;;;;;;;10.13;7.85;;;;;;;;;;5018615;28;20210;-74
2021/07/03 13:20:16;;;;;;;10.20;7.88;;;;;;;;;;5003439;28;20186;-75
2021/07/03 13:22:41;;;;;;;10.18;7.40;;;;;;;;;;5009864;28;20243;-74
2021/07/03 13:25:07;;;;;;;9.35;7.53;;;;;;;;;;5022531;28;20513;-72
2021/07/03 13:27:32;;;;;;;8.88;7.93;;;;;;;;;;5009669;28;20244;-76
2021/07/03 13:29:58;;;;;;;10.98;8.82;;;;;;;;;;5020184;28;20665;-74
2021/07/03 13:32:23;;;;;;;8.90;7.82;;;;;;;;;;5007648;28;20821;-75
2021/07/03 13:34:49;;;;;;;9.50;8.23;;;;;;;;;;5023764;28;20672;-75
2021/07/03 13:37:14;;;;;;;10.32;9.20;;;;;;;;;;4990992;28;20194;-74
2021/07/03 13:39:39;;;;;;;10.63;9.52;;;;;;;;;;5017359;28;20182;-73
2021/07/03 13:42:05;;;;;;;12.60;10.30;;;;;;;;;;5013373;28;20202;-75
2021/07/03 13:44:30;;;;;;;10.88;9.13;;;;;;;;;;5006992;28;20235;-74
2021/07/03 13:46:55;;;;;;;9.65;8.65;;;;;;;;;;5024740;28;20716;-74
2021/07/03 13:49:21;;;;;;;11.65;9.93;;;;;;;;;;5024694;28;20247;-74
2021/07/03 13:51:47;;;;;;;10.40;9.13;;;;;;;;;;5043439;28;20193;-72
2021/07/03 13:54:12;;;;;;;11.00;9.82;;;;;;;;;;5029356;28;20185;-72
2021/07/03 13:56:37;;;;;;;9.73;8.75;;;;;;;;;;5038327;28;20719;-74
2021/07/03 13:59:03;;;;;;;11.70;10.10;;;;;;;;;;5027939;28;20189;-71
2021/07/03 14:01:28;;;;;;;11.65;9.93;;;;;;;;;;5039648;28;20274;-73
2021/07/03 14:03:54;;;;;;;10.10;8.75;;;;;;;;;;5027470;28;20231;-73
2021/07/03 14:06:19;;;;;;;10.18;8.98;;;;;;;;;;5040496;28;20216;-73
2021/07/03 14:08:44;;;;;;;12.35;9.68;;;;;;;;;;4327631;28;10000891;-71
2021/07/03 14:11:10;;;;;;;13.05;9.75;;;;;;;;;;5034576;28;20190;-72
2021/07/03 14:13:36;;;;;;;10.82;9.40;;;;;;;;;;5028232;28;20193;-70
2021/07/03 14:16:02;;;;;;;10.18;8.70;;;;;;;;;;5037800;28;20581;-72
2021/07/03 14:18:27;;;;;;;11.05;9.95;;;;;;;;;;5022166;28;20197;-74